Time;durP1;ratioP1;P1;durP2;ratioP2;P2;SDS_P1;SDS_P2;PMS_P1;PMS_P2;Temp;Humidity;BMP_temperature;BMP_pressure;BME280_temperature;BME280_humidity;BME280_pressure;Samples;Min_cycle;Max_cycle;Signal;HPM_P1;HPM_P2
2021/08/28 00:02:14;;;;;;;13.40;3.05;;;14.90;78.20;;;;;;5019443;28;20471;-92
2021/08/28 00:04:41;;;;;;;14.57;2.72;;;14.90;78.10;;;;;;5027485;28;20077;-91
2021/08/28 00:07:07;;;;;;;14.82;2.83;;;14.90;78.00;;;;;;5028056;28;20474;-91
2021/08/28 00:09:34;;;;;;;13.27;3.10;;;14.90;78.00;;;;;;5027635;28;20046;-92
2021/08/28 00:12:01;;;;;;;14.55;3.00;;;14.90;78.00;;;;;;5030328;28;20614;-90
2021/08/28 00:14:28;;;;;;;14.93;3.50;;;14.90;77.90;;;;;;5030437;28;20057;-91
2021/08/28 00:16:55;;;;;;;13.10;2.50;;;14.90;77.90;;;;;;5029242;28;20049;-91
2021/08/28 00:19:22;;;;;;;12.88;2.65;;;14.90;77.90;;;;;;5026985;28;20465;-91
2021/08/28 00:21:49;;;;;;;12.18;3.28;;;14.80;78.00;;;;;;5027238;28;20095;-90
2021/08/28 00:24:15;;;;;;;18.48;3.30;;;14.80;78.00;;;;;;5030845;28;20041;-90
2021/08/28 00:26:43;;;;;;;13.93;3.22;;;14.80;78.00;;;;;;5015226;28;20045;-91
2021/08/28 00:29:09;;;;;;;13.68;3.20;;;14.70;78.10;;;;;;5033771;28;20495;-91
2021/08/28 00:31:36;;;;;;;14.90;3.30;;;14.70;78.10;;;;;;5032530;28;20107;-89
2021/08/28 00:34:03;;;;;;;16.77;3.63;;;14.80;78.30;;;;;;5032213;28;20420;-90
2021/08/28 00:36:30;;;;;;;16.33;3.13;;;14.80;78.40;;;;;;5032187;28;20092;-91
2021/08/28 00:38:57;;;;;;;12.52;3.22;;;14.80;78.40;;;;;;5032200;28;20075;-91
2021/08/28 00:41:24;;;;;;;17.00;3.70;;;14.70;78.40;;;;;;5034156;28;20057;-90
2021/08/28 00:43:51;;;;;;;16.83;3.08;;;14.70;78.50;;;;;;5031553;28;20100;-91
2021/08/28 00:46:18;;;;;;;11.60;2.83;;;14.70;78.60;;;;;;5059687;28;20515;-89
2021/08/28 00:48:45;;;;;;;14.57;2.97;;;14.70;78.70;;;;;;5032107;28;20565;-91
2021/08/28 00:51:13;;;;;;;18.25;3.30;;;14.70;78.70;;;;;;5063646;28;20066;-90
2021/08/28 00:53:41;;;;;;;15.63;3.53;;;14.70;78.70;;;;;;5030510;28;20566;-90
2021/08/28 00:56:08;;;;;;;14.77;3.30;;;14.60;78.70;;;;;;5034076;28;20057;-91
2021/08/28 00:58:35;;;;;;;15.63;2.92;;;14.60;78.70;;;;;;5032095;28;20062;-91
2021/08/28 01:01:06;;;;;;;19.50;3.15;;;14.60;78.80;;;;;;5031758;28;20045;-92
2021/08/28 01:03:34;;;;;;;17.50;3.28;;;14.60;78.70;;;;;;5030636;28;20061;-90
2021/08/28 01:06:20;;;;;;;12.27;3.05;;;14.60;78.70;;;;;;5031226;28;20045;-90
2021/08/28 01:09:02;;;;;;;12.68;3.05;;;14.60;78.70;;;;;;5031612;28;20049;-90
2021/08/28 01:11:44;;;;;;;18.10;3.50;;;14.60;78.80;;;;;;5030140;28;20046;-90
2021/08/28 01:14:14;;;;;;;14.75;3.67;;;14.60;78.90;;;;;;5033208;28;20571;-90
2021/08/28 01:16:48;;;;;;;15.80;3.25;;;14.60;79.00;;;;;;5031549;28;20053;-89
2021/08/28 01:19:41;;;;;;;11.70;3.22;;;14.60;79.20;;;;;;5031692;28;20052;-89
2021/08/28 01:22:14;;;;;;;17.40;3.70;;;14.60;79.40;;;;;;4991267;28;20046;-90
2021/08/28 01:24:44;;;;;;;;;;;14.60;79.50;;;;;;4991863;28;20825;-90
2021/08/28 01:27:34;;;;;;;17.85;3.45;;;14.60;79.60;;;;;;4991136;28;19925;-91
2021/08/28 01:30:03;;;;;;;15.55;3.28;;;14.60;79.60;;;;;;4991413;28;20460;-93
2021/08/28 01:32:30;;;;;;;16.23;3.28;;;14.60;79.70;;;;;;4991618;28;20533;-91
2021/08/28 01:34:59;;;;;;;12.55;2.67;;;14.60;79.70;;;;;;4971974;28;20525;-91
2021/08/28 01:37:27;;;;;;;16.58;3.50;;;14.60;79.80;;;;;;4988697;28;20060;-91
2021/08/28 01:39:58;;;;;;;11.82;3.05;;;14.50;79.70;;;;;;4974893;28;20046;-93
2021/08/28 01:42:30;;;;;;;13.05;3.15;;;14.60;79.70;;;;;;4991394;28;20046;-91
2021/08/28 01:44:58;;;;;;;14.65;3.53;;;14.60;79.70;;;;;;4991056;28;20468;-90
2021/08/28 01:47:28;;;;;;;12.93;2.95;;;14.60;79.80;;;;;;4991464;28;20054;-90
2021/08/28 01:49:56;;;;;;;15.07;3.03;;;14.60;79.70;;;;;;4990245;28;20050;-91
2021/08/28 01:52:23;;;;;;;15.02;4.03;;;14.60;79.70;;;;;;4990913;28;20562;-89
2021/08/28 01:54:50;;;;;;;14.45;3.00;;;14.60;79.70;;;;;;4973763;28;20046;-90
2021/08/28 01:57:16;;;;;;;13.77;2.90;;;14.60;79.70;;;;;;4991283;28;20097;-90
2021/08/28 01:59:43;;;;;;;13.38;3.55;;;14.60;79.70;;;;;;5005695;28;20085;-90
2021/08/28 02:02:10;;;;;;;12.07;3.15;;;14.60;79.70;;;;;;5031742;28;20107;-90
2021/08/28 02:04:38;;;;;;;13.30;3.53;;;14.60;79.70;;;;;;5030315;28;20045;-89
2021/08/28 02:07:45;;;;;;;11.98;3.13;;;14.60;79.70;;;;;;5030690;28;20108;-89
2021/08/28 02:10:23;;;;;;;9.85;2.97;;;14.60;79.70;;;;;;4990421;28;20591;-90
2021/08/28 02:12:56;;;;;;;14.63;3.33;;;14.50;79.70;;;;;;4990900;28;20058;-93
2021/08/28 02:15:37;;;;;;;14.50;3.40;;;14.50;79.80;;;;;;4990925;28;20046;-90
2021/08/28 02:18:33;;;;;;;10.57;2.90;;;14.50;79.90;;;;;;4990804;28;20165;-90
2021/08/28 02:21:03;;;;;;;9.27;3.55;;;14.50;80.00;;;;;;4990685;28;20047;-89
2021/08/28 02:23:41;;;;;;;21.02;3.78;;;14.50;80.00;;;;;;4974822;28;20388;-90
2021/08/28 02:26:19;;;;;;;13.95;3.90;;;14.50;80.10;;;;;;4993482;28;20047;-90
2021/08/28 02:28:50;;;;;;;16.58;3.58;;;14.50;80.10;;;;;;4990635;28;20055;-91
2021/08/28 02:31:18;;;;;;;16.33;3.90;;;14.50;80.20;;;;;;4990508;28;20074;-89
2021/08/28 02:33:48;;;;;;;11.63;3.17;;;14.50;80.20;;;;;;4989947;28;20046;-89
2021/08/28 02:36:16;;;;;;;16.45;3.67;;;14.50;80.30;;;;;;4990605;28;20038;-89
2021/08/28 02:38:46;;;;;;;15.95;4.03;;;14.50;80.30;;;;;;4991994;28;20062;-89
2021/08/28 02:41:13;;;;;;;13.00;3.20;;;14.50;80.50;;;;;;4995047;28;20047;-89
2021/08/28 02:43:42;;;;;;;11.70;3.83;;;14.50;80.50;;;;;;4978215;28;20046;-90
2021/08/28 02:46:10;;;;;;;12.48;3.75;;;14.40;80.50;;;;;;5019833;28;20045;-90
2021/08/28 02:48:38;;;;;;;16.35;3.88;;;14.50;80.60;;;;;;5034106;28;20056;-89
2021/08/28 02:51:10;;;;;;;15.70;3.72;;;14.40;80.60;;;;;;5033857;28;20111;-89
2021/08/28 02:53:45;;;;;;;16.10;3.60;;;14.40;80.70;;;;;;5034224;28;20136;-89
2021/08/28 02:56:14;;;;;;;10.43;3.50;;;14.40;80.80;;;;;;5036468;28;20115;-90
2021/08/28 02:58:45;;;;;;;11.02;3.70;;;14.40;80.90;;;;;;5034153;28;20049;-89
2021/08/28 03:01:12;;;;;;;12.70;3.35;;;14.40;80.90;;;;;;5032654;28;20076;-91
2021/08/28 03:03:42;;;;;;;14.85;3.30;;;14.40;80.90;;;;;;5033524;28;20049;-88
2021/08/28 03:06:10;;;;;;;11.77;3.60;;;14.40;80.90;;;;;;5031674;28;20050;-89
2021/08/28 03:08:40;;;;;;;14.32;3.75;;;14.40;81.00;;;;;;5033714;28;20056;-91
2021/08/28 03:11:08;;;;;;;13.85;3.55;;;14.40;81.10;;;;;;5035933;28;20565;-89
2021/08/28 03:13:35;;;;;;;15.02;3.95;;;14.30;81.20;;;;;;5033835;28;20096;-89
2021/08/28 03:16:03;;;;;;;14.48;3.15;;;14.30;81.20;;;;;;5033504;28;20056;-89
2021/08/28 03:18:37;;;;;;;13.35;3.88;;;14.30;81.20;;;;;;5031940;28;20111;-89
2021/08/28 03:21:05;;;;;;;15.68;3.40;;;14.40;81.20;;;;;;5033549;28;20096;-90
2021/08/28 03:23:33;;;;;;;16.27;4.35;;;14.30;81.30;;;;;;5034160;28;20470;-89
2021/08/28 03:26:00;;;;;;;11.52;4.00;;;14.30;81.30;;;;;;5033941;28;20053;-88
2021/08/28 03:28:28;;;;;;;17.45;3.92;;;14.30;81.30;;;;;;5033373;28;20056;-89
2021/08/28 03:30:56;;;;;;;14.50;4.10;;;14.30;81.30;;;;;;5032871;28;20049;-90
2021/08/28 03:33:23;;;;;;;17.08;3.92;;;14.30;81.40;;;;;;5033322;28;20599;-89
2021/08/28 03:35:51;;;;;;;12.07;3.55;;;14.30;81.40;;;;;;5017734;28;20530;-88
2021/08/28 03:38:18;;;;;;;12.07;3.17;;;14.30;81.50;;;;;;5031232;28;20050;-88
2021/08/28 03:40:45;;;;;;;11.27;3.67;;;14.30;81.60;;;;;;5032193;28;20565;-89
2021/08/28 03:43:13;;;;;;;11.57;3.83;;;14.30;81.60;;;;;;5032922;28;20543;-88
2021/08/28 03:45:40;;;;;;;18.17;4.50;;;14.30;81.60;;;;;;5032726;28;20103;-88
2021/08/28 03:48:08;;;;;;;12.10;3.75;;;14.30;81.80;;;;;;5064924;28;20049;-90
2021/08/28 03:50:35;;;;;;;16.33;4.07;;;14.30;81.90;;;;;;5032908;28;20397;-88
2021/08/28 03:53:02;;;;;;;14.27;4.13;;;14.40;82.00;;;;;;5046776;28;20504;-91
2021/08/28 03:55:29;;;;;;;16.00;4.47;;;14.40;82.10;;;;;;5027905;28;20075;-89
2021/08/28 03:57:55;;;;;;;16.83;4.60;;;14.40;82.40;;;;;;5032720;28;20514;-89
2021/08/28 04:00:22;;;;;;;16.65;3.97;;;14.40;82.40;;;;;;5032287;28;20056;-90
2021/08/28 04:02:50;;;;;;;19.88;4.60;;;14.40;82.40;;;;;;5017239;28;20050;-91
2021/08/28 04:05:17;;;;;;;17.60;3.80;;;14.40;82.50;;;;;;5030238;28;20623;-89
2021/08/28 04:07:44;;;;;;;21.20;4.57;;;14.40;82.60;;;;;;5032708;28;20092;-88
2021/08/28 04:10:11;;;;;;;23.10;4.60;;;14.40;82.60;;;;;;5032500;28;20041;-89
2021/08/28 04:12:38;;;;;;;22.60;4.43;;;14.40;82.60;;;;;;5032475;28;20515;-89
2021/08/28 04:15:06;;;;;;;18.90;4.20;;;14.50;82.70;;;;;;5032046;28;20048;-89
2021/08/28 04:17:33;;;;;;;15.55;4.00;;;14.50;82.70;;;;;;5033558;28;20061;-89
2021/08/28 04:20:00;;;;;;;16.38;3.95;;;14.50;82.80;;;;;;5032023;28;20098;-88
2021/08/28 04:22:26;;;;;;;16.13;4.50;;;14.60;82.80;;;;;;5032085;28;20504;-89
2021/08/28 04:24:53;;;;;;;24.90;5.45;;;14.60;82.90;;;;;;5032429;28;20041;-88
2021/08/28 04:27:20;;;;;;;18.60;4.30;;;14.60;82.90;;;;;;5032349;28;20057;-89
2021/08/28 04:29:47;;;;;;;11.57;2.97;;;14.60;83.00;;;;;;5031700;28;20042;-88
2021/08/28 04:32:14;;;;;;;19.23;4.38;;;14.70;83.00;;;;;;5033126;28;20088;-89
2021/08/28 04:34:41;;;;;;;24.55;4.18;;;14.70;83.00;;;;;;5031996;28;20053;-89
2021/08/28 04:37:08;;;;;;;25.92;5.45;;;14.70;83.00;;;;;;5030748;28;20128;-89
2021/08/28 04:39:35;;;;;;;16.67;3.85;;;14.80;83.00;;;;;;5030522;28;20099;-88
2021/08/28 04:42:02;;;;;;;18.80;4.28;;;14.80;83.00;;;;;;5032110;28;20053;-88
2021/08/28 04:44:28;;;;;;;15.50;4.15;;;14.80;83.00;;;;;;5032618;28;20045;-87
2021/08/28 04:46:55;;;;;;;19.60;4.25;;;14.80;83.00;;;;;;5032934;28;20053;-89
2021/08/28 04:49:22;;;;;;;18.50;4.18;;;14.90;83.00;;;;;;5031670;28;20111;-90
2021/08/28 04:51:49;;;;;;;21.77;4.72;;;14.90;83.00;;;;;;5030397;28;20053;-89
2021/08/28 04:54:16;;;;;;;23.55;4.50;;;14.80;83.00;;;;;;5031774;28;20042;-89
2021/08/28 04:56:43;;;;;;;16.40;4.30;;;14.90;83.00;;;;;;5031640;28;20482;-89
2021/08/28 04:59:10;;;;;;;14.93;4.00;;;14.90;82.90;;;;;;5032289;28;20104;-90
2021/08/28 05:01:36;;;;;;;21.15;5.05;;;14.90;82.80;;;;;;5031014;28;20095;-89
2021/08/28 05:04:04;;;;;;;19.67;4.40;;;14.80;82.80;;;;;;5058858;28;20501;-90
2021/08/28 05:06:31;;;;;;;15.80;3.80;;;14.90;82.70;;;;;;5031366;28;20527;-91
2021/08/28 05:09:01;;;;;;;17.05;4.13;;;14.80;82.70;;;;;;5062304;28;20049;-88
2021/08/28 05:11:28;;;;;;;16.77;4.15;;;14.80;82.70;;;;;;5031835;28;20050;-90
2021/08/28 05:13:55;;;;;;;19.17;4.60;;;14.80;82.70;;;;;;5032072;28;20080;-90
2021/08/28 05:16:22;;;;;;;20.23;3.72;;;14.80;82.70;;;;;;5030154;28;20053;-89
2021/08/28 05:18:49;;;;;;;20.55;4.68;;;14.80;82.60;;;;;;5031063;28;20045;-90
2021/08/28 05:21:15;;;;;;;15.43;4.30;;;14.80;82.60;;;;;;5031139;28;20574;-88
2021/08/28 05:23:42;;;;;;;15.15;3.85;;;14.70;82.60;;;;;;5031388;28;20054;-88
2021/08/28 05:26:09;;;;;;;16.27;4.03;;;14.70;82.60;;;;;;5033100;28;20061;-89
2021/08/28 05:28:36;;;;;;;17.88;4.00;;;14.70;82.60;;;;;;5030521;28;20045;-89
2021/08/28 05:31:03;;;;;;;19.33;4.53;;;14.70;82.60;;;;;;5030898;28;20042;-89
2021/08/28 05:33:30;;;;;;;17.45;4.28;;;14.60;82.50;;;;;;5029979;28;20088;-89
2021/08/28 05:35:57;;;;;;;18.05;4.55;;;14.60;82.50;;;;;;5029579;28;20049;-89
2021/08/28 05:38:24;;;;;;;10.82;3.65;;;14.60;82.50;;;;;;5031031;28;20511;-89
2021/08/28 05:40:51;;;;;;;13.43;3.65;;;14.60;82.50;;;;;;5031671;28;20061;-88
2021/08/28 05:43:18;;;;;;;16.08;3.75;;;14.60;82.50;;;;;;5030156;28;20107;-88
2021/08/28 05:45:45;;;;;;;14.35;3.92;;;14.60;82.50;;;;;;5030597;28;20049;-89
2021/08/28 05:48:12;;;;;;;13.25;4.03;;;14.60;82.50;;;;;;5031041;28;20198;-89
2021/08/28 05:50:39;;;;;;;17.73;3.85;;;14.60;82.50;;;;;;5030622;28;20099;-89
2021/08/28 05:53:05;;;;;;;11.05;3.30;;;14.50;82.50;;;;;;5033001;28;20091;-87
2021/08/28 05:55:32;;;;;;;13.48;4.00;;;14.60;82.50;;;;;;5029499;28;20057;-90
2021/08/28 05:57:59;;;;;;;13.63;4.05;;;14.60;82.50;;;;;;5030102;28;20511;-87
2021/08/28 06:00:26;;;;;;;14.68;3.63;;;14.60;82.60;;;;;;5030411;28;20053;-89
2021/08/28 06:02:53;;;;;;;20.35;4.15;;;14.50;82.70;;;;;;5030575;28;20123;-87
2021/08/28 06:05:20;;;;;;;24.23;4.47;;;14.60;82.80;;;;;;5032620;28;20122;-89
2021/08/28 06:07:47;;;;;;;17.55;4.93;;;14.60;83.00;;;;;;5027890;28;20068;-90
2021/08/28 06:10:14;;;;;;;21.48;4.45;;;14.60;83.10;;;;;;5030287;28;20045;-89
2021/08/28 06:12:41;;;;;;;14.15;4.07;;;14.60;83.10;;;;;;5029456;28;20069;-88
2021/08/28 06:15:08;;;;;;;19.77;4.47;;;14.70;83.10;;;;;;5028855;28;20038;-88
2021/08/28 06:17:35;;;;;;;19.80;4.40;;;14.70;83.20;;;;;;5030492;28;20107;-89
2021/08/28 06:20:03;;;;;;;18.75;4.30;;;14.70;83.20;;;;;;5030145;28;20466;-88
2021/08/28 06:22:31;;;;;;;22.67;5.07;;;14.80;83.30;;;;;;5030233;28;20049;-89
2021/08/28 06:24:57;;;;;;;25.20;5.07;;;14.80;83.30;;;;;;5029916;28;20462;-90
2021/08/28 06:27:24;;;;;;;18.83;4.90;;;14.80;83.30;;;;;;5030133;28;20053;-89
2021/08/28 06:29:52;;;;;;;16.95;4.43;;;14.90;83.50;;;;;;5030298;28;20053;-88
2021/08/28 06:32:18;;;;;;;14.73;4.15;;;14.90;83.60;;;;;;5028204;28;20053;-90
2021/08/28 06:34:45;;;;;;;17.77;4.65;;;14.90;83.70;;;;;;5028133;28;20496;-90
2021/08/28 06:37:12;;;;;;;14.80;4.00;;;14.90;83.70;;;;;;5058463;28;20041;-93
2021/08/28 06:39:39;;;;;;;11.75;3.53;;;14.90;83.60;;;;;;5030495;28;20500;-92
2021/08/28 06:42:06;;;;;;;16.90;4.22;;;15.00;83.60;;;;;;5029298;28;20041;-92
2021/08/28 06:44:33;;;;;;;22.92;4.78;;;15.00;83.60;;;;;;5030136;28;20046;-86
2021/08/28 06:47:00;;;;;;;25.17;4.97;;;15.00;83.60;;;;;;5056906;28;20049;-85
2021/08/28 06:49:27;;;;;;;18.42;4.90;;;15.10;83.60;;;;;;5030142;28;20053;-88
2021/08/28 06:51:55;;;;;;;19.60;5.22;;;15.10;83.80;;;;;;5023063;28;20124;-87
2021/08/28 06:54:21;;;;;;;24.83;5.22;;;15.10;83.90;;;;;;5023718;28;20045;-86
2021/08/28 06:56:48;;;;;;;20.38;4.50;;;15.20;83.90;;;;;;5012960;28;20057;-89
2021/08/28 06:59:15;;;;;;;18.67;4.43;;;15.20;84.00;;;;;;5013456;28;20054;-89
2021/08/28 07:01:42;;;;;;;18.02;5.05;;;15.30;84.10;;;;;;5011978;28;20459;-88
2021/08/28 07:04:10;;;;;;;18.73;5.30;;;15.30;84.10;;;;;;5021765;28;20140;-86
2021/08/28 07:06:37;;;;;;;20.48;5.18;;;15.30;84.20;;;;;;5029531;28;20052;-87
2021/08/28 07:09:04;;;;;;;20.15;5.45;;;15.30;84.20;;;;;;5031337;28;20192;-89
2021/08/28 07:11:31;;;;;;;15.40;5.13;;;15.40;84.30;;;;;;5031510;28;20061;-88
2021/08/28 07:13:58;;;;;;;19.88;5.05;;;15.40;84.30;;;;;;5012802;28;20083;-87
2021/08/28 07:16:25;;;;;;;18.73;4.60;;;15.40;84.30;;;;;;5027006;28;20462;-88
2021/08/28 07:18:52;;;;;;;14.75;4.50;;;15.40;84.20;;;;;;5030787;28;20049;-88
2021/08/28 07:21:19;;;;;;;17.30;4.90;;;15.40;84.20;;;;;;5031811;28;20064;-87
2021/08/28 07:23:47;;;;;;;17.13;4.80;;;15.50;84.20;;;;;;5028385;28;20050;-89
2021/08/28 07:26:16;;;;;;;14.48;4.45;;;15.50;84.20;;;;;;5014606;28;20057;-88
2021/08/28 07:28:44;;;;;;;12.85;4.30;;;15.50;84.20;;;;;;5027446;28;20049;-90
2021/08/28 07:31:11;;;;;;;10.70;3.63;;;15.50;84.20;;;;;;5034295;28;20045;-88
2021/08/28 07:33:39;;;;;;;13.77;4.10;;;15.60;84.20;;;;;;5065354;28;20504;-86
2021/08/28 07:36:06;;;;;;;14.25;4.63;;;15.60;84.10;;;;;;5033847;28;20053;-86
2021/08/28 07:38:34;;;;;;;13.30;3.60;;;15.60;84.10;;;;;;5033854;28;20065;-87
2021/08/28 07:41:01;;;;;;;11.88;3.70;;;15.60;84.10;;;;;;5034142;28;20435;-89
2021/08/28 07:43:29;;;;;;;12.95;3.85;;;15.70;84.10;;;;;;5017103;28;20096;-87
2021/08/28 07:45:58;;;;;;;13.65;4.20;;;15.70;84.10;;;;;;5014650;28;20053;-87
2021/08/28 07:48:25;;;;;;;10.38;4.20;;;15.70;84.10;;;;;;5015733;28;20054;-88
2021/08/28 07:50:52;;;;;;;12.23;3.55;;;15.80;84.10;;;;;;5023656;28;20477;-87
2021/08/28 07:53:19;;;;;;;10.27;3.58;;;15.80;84.20;;;;;;5035006;28;20057;-87
2021/08/28 07:55:46;;;;;;;11.02;3.72;;;15.90;84.20;;;;;;5032533;28;20041;-89
2021/08/28 07:58:13;;;;;;;14.50;4.93;;;15.90;84.20;;;;;;5034859;28;20049;-87
2021/08/28 08:00:40;;;;;;;14.07;5.38;;;15.90;84.20;;;;;;5024288;28;20671;-87
2021/08/28 08:03:07;;;;;;;13.20;5.10;;;15.90;84.20;;;;;;5013954;28;20140;-87
2021/08/28 08:05:34;;;;;;;15.98;5.95;;;16.00;84.30;;;;;;5031345;28;20053;-86
2021/08/28 08:08:01;;;;;;;23.83;6.88;;;16.10;84.40;;;;;;5034469;28;20064;-87
2021/08/28 08:10:28;;;;;;;15.77;5.75;;;16.20;84.40;;;;;;5032110;28;20049;-86
2021/08/28 08:12:55;;;;;;;19.40;7.50;;;16.20;84.50;;;;;;5030601;28;20056;-87
2021/08/28 08:15:22;;;;;;;17.65;7.00;;;16.20;84.50;;;;;;5030167;28;20117;-87
2021/08/28 08:17:49;;;;;;;24.25;7.47;;;16.30;84.60;;;;;;5024846;28;20526;-92
2021/08/28 08:20:16;;;;;;;16.20;5.03;;;16.30;84.50;;;;;;5013863;28;20058;-88
2021/08/28 08:22:44;;;;;;;20.63;7.45;;;16.40;84.50;;;;;;5020893;28;20096;-86
2021/08/28 08:25:11;;;;;;;14.88;6.18;;;16.40;84.50;;;;;;5020970;28;20459;-86
2021/08/28 08:27:38;;;;;;;22.40;6.70;;;16.40;84.50;;;;;;5021703;28;20054;-87
2021/08/28 08:30:05;;;;;;;34.22;8.63;;;16.40;84.50;;;;;;5031735;28;20061;-89
2021/08/28 08:32:33;;;;;;;20.77;6.75;;;16.50;84.50;;;;;;5014710;28;20096;-86
2021/08/28 08:35:00;;;;;;;16.23;5.93;;;16.50;84.70;;;;;;5031638;28;20103;-87
2021/08/28 08:37:27;;;;;;;23.15;5.90;;;16.60;84.70;;;;;;5017260;28;20049;-86
2021/08/28 08:39:54;;;;;;;18.90;5.93;;;16.60;84.70;;;;;;5019412;28;20042;-86
2021/08/28 08:42:26;;;;;;;17.40;5.22;;;16.60;84.70;;;;;;5019078;28;20554;-87
2021/08/28 08:44:53;;;;;;;14.07;5.75;;;16.80;84.90;;;;;;5016476;28;20463;-85
2021/08/28 08:47:21;;;;;;;17.48;5.97;;;16.80;84.90;;;;;;5030049;28;20056;-87
2021/08/28 08:49:51;;;;;;;14.82;5.72;;;16.90;84.90;;;;;;5019142;28;20145;-84
2021/08/28 08:52:20;;;;;;;22.83;6.68;;;17.00;85.00;;;;;;5020597;28;20116;-86
2021/08/28 08:54:49;;;;;;;21.33;7.13;;;17.10;85.00;;;;;;5049439;28;20433;-87
2021/08/28 08:57:17;;;;;;;28.10;7.90;;;17.30;85.10;;;;;;5027842;28;20045;-85
2021/08/28 08:59:44;;;;;;;17.92;7.18;;;17.40;85.10;;;;;;5015222;28;20111;-85
2021/08/28 09:02:11;;;;;;;23.63;7.32;;;17.60;85.30;;;;;;5018078;28;20504;-86
2021/08/28 09:04:38;;;;;;;28.00;7.60;;;17.70;85.10;;;;;;5024758;28;20046;-86
2021/08/28 09:07:06;;;;;;;17.33;5.43;;;17.90;85.00;;;;;;5024695;28;20049;-85
2021/08/28 09:09:32;;;;;;;18.75;5.35;;;17.90;84.40;;;;;;5058315;28;20052;-84
2021/08/28 09:12:07;;;;;;;17.38;5.28;;;18.00;84.00;;;;;;5059953;28;20523;-85
2021/08/28 09:14:35;;;;;;;20.17;5.90;;;18.20;83.90;;;;;;5029768;28;20155;-85
2021/08/28 09:17:20;;;;;;;18.17;5.28;;;18.30;83.70;;;;;;5020236;28;20050;-87
2021/08/28 09:19:49;;;;;;;23.92;5.93;;;18.40;83.50;;;;;;5012232;28;20046;-87
2021/08/28 09:22:29;;;;;;;15.23;4.97;;;18.40;83.20;;;;;;5024578;28;20049;-87
2021/08/28 09:24:59;;;;;;;20.77;5.82;;;18.40;83.10;;;;;;5024429;28;20047;-87
2021/08/28 09:27:36;;;;;;;17.67;5.60;;;18.50;82.90;;;;;;5014776;28;20042;-88
2021/08/28 09:30:27;;;;;;;15.80;4.90;;;18.60;82.90;;;;;;5028423;28;20103;-87
2021/08/28 09:33:03;;;;;;;17.40;4.95;;;18.70;82.40;;;;;;5049244;28;20049;-87
2021/08/28 09:35:32;;;;;;;16.92;4.57;;;18.70;81.10;;;;;;5031189;28;20053;-86
2021/08/28 09:38:05;;;;;;;16.10;4.88;;;18.80;81.10;;;;;;5028665;28;20112;-88
2021/08/28 09:40:37;;;;;;;17.90;4.47;;;18.90;81.20;;;;;;5031565;28;20559;-87
2021/08/28 09:43:13;;;;;;;10.30;3.60;;;18.90;81.10;;;;;;5058320;28;20041;-87
2021/08/28 09:45:40;;;;;;;17.98;4.13;;;18.90;80.90;;;;;;5056564;28;20508;-88
2021/08/28 09:48:09;;;;;;;15.30;4.15;;;19.00;80.60;;;;;;5014510;28;20415;-88
2021/08/28 09:50:48;;;;;;;14.70;4.32;;;19.00;80.10;;;;;;5030025;28;20065;-87
2021/08/28 09:53:38;;;;;;;15.70;4.65;;;19.10;80.40;;;;;;5014063;28;20084;-86
2021/08/28 09:56:07;;;;;;;14.15;4.50;;;19.10;80.60;;;;;;5026899;28;20056;-89
2021/08/28 09:58:34;;;;;;;17.77;5.38;;;19.20;80.50;;;;;;5032313;28;20077;-88
2021/08/28 10:01:04;;;;;;;11.48;4.20;;;19.20;80.00;;;;;;5056081;28;20045;-89
2021/08/28 10:03:32;;;;;;;13.68;4.70;;;19.20;79.60;;;;;;5033117;28;20137;-89
2021/08/28 10:06:01;;;;;;;14.13;4.32;;;19.30;79.50;;;;;;5033284;28;20180;-90
2021/08/28 10:08:30;;;;;;;20.33;5.10;;;19.40;79.40;;;;;;5015253;28;20050;-91
2021/08/28 10:11:00;;;;;;;11.93;4.30;;;19.40;79.50;;;;;;5051957;28;20132;-90
2021/08/28 10:13:32;;;;;;;14.95;4.35;;;19.40;79.70;;;;;;5025492;28;20046;-91
2021/08/28 10:16:01;;;;;;;15.10;4.20;;;19.50;78.60;;;;;;5012112;28;20061;-88
2021/08/28 10:18:30;;;;;;;12.82;4.25;;;19.60;78.40;;;;;;5052832;28;20046;-91
2021/08/28 10:20:58;;;;;;;14.98;4.45;;;19.60;78.60;;;;;;5031567;28;20049;-90
2021/08/28 10:23:33;;;;;;;14.75;3.90;;;19.70;78.80;;;;;;5064507;28;20049;-89
2021/08/28 10:26:00;;;;;;;10.07;3.33;;;19.80;78.60;;;;;;5013333;28;20096;-91
2021/08/28 10:28:30;;;;;;;11.98;3.17;;;19.90;78.60;;;;;;5044649;28;20124;-91
2021/08/28 10:30:57;;;;;;;9.55;2.85;;;19.90;78.30;;;;;;5012570;28;20054;-91
2021/08/28 10:33:24;;;;;;;9.82;3.05;;;19.90;78.00;;;;;;5011554;28;20053;-90
2021/08/28 10:35:52;;;;;;;10.85;2.75;;;20.00;77.60;;;;;;5016702;28;20050;-92
2021/08/28 10:38:19;;;;;;;9.50;2.15;;;20.10;77.00;;;;;;5064529;28;20052;-90
2021/08/28 10:40:53;;;;;;;7.80;2.30;;;20.10;76.50;;;;;;5031031;28;20064;-90
2021/08/28 10:43:21;;;;;;;7.07;2.50;;;20.10;75.40;;;;;;5063619;28;20049;-88
2021/08/28 10:45:48;;;;;;;7.60;2.47;;;20.20;75.20;;;;;;5032173;28;20049;-91
2021/08/28 10:48:15;;;;;;;6.32;2.38;;;20.30;75.80;;;;;;5024650;28;20057;-93
2021/08/28 10:50:43;;;;;;;7.60;2.13;;;20.30;76.00;;;;;;5045932;28;20057;-90
2021/08/28 10:53:11;;;;;;;8.07;2.20;;;20.40;75.50;;;;;;5064881;28;20049;-89
2021/08/28 10:55:41;;;;;;;6.80;2.28;;;20.40;75.10;;;;;;5023473;28;20520;-90
2021/08/28 10:58:21;;;;;;;5.45;2.13;;;20.50;75.00;;;;;;5022541;28;20045;-89
2021/08/28 11:00:49;;;;;;;5.78;2.10;;;20.70;74.80;;;;;;5018927;28;20503;-90
2021/08/28 11:03:32;;;;;;;10.25;2.30;;;20.80;74.30;;;;;;5033666;28;20046;-89
2021/08/28 11:06:17;;;;;;;8.50;2.35;;;20.80;73.30;;;;;;5019472;28;20097;-90
2021/08/28 11:08:52;;;;;;;6.57;2.13;;;20.90;72.90;;;;;;5050888;28;20072;-89
2021/08/28 11:11:27;;;;;;;7.88;2.28;;;21.00;72.60;;;;;;5048219;28;20053;-91
2021/08/28 11:13:58;;;;;;;7.60;2.47;;;21.00;73.20;;;;;;5030572;28;20053;-90
2021/08/28 11:16:43;;;;;;;5.20;2.05;;;21.10;73.50;;;;;;5015375;28;20056;-89
2021/08/28 11:19:33;;;;;;;5.50;2.28;;;21.20;73.50;;;;;;5029661;28;20057;-89
2021/08/28 11:22:05;;;;;;;7.35;2.67;;;21.30;73.10;;;;;;5028462;28;20095;-88
2021/08/28 11:24:32;;;;;;;6.72;2.50;;;21.40;73.00;;;;;;5035432;28;20045;-93
2021/08/28 11:27:03;;;;;;;9.00;2.50;;;21.50;72.60;;;;;;5062740;28;20100;-91
2021/08/28 11:29:46;;;;;;;6.90;2.20;;;21.60;71.90;;;;;;5015571;28;20053;-94
2021/08/28 11:32:22;;;;;;;9.43;2.95;;;21.70;71.40;;;;;;5016414;28;20061;-89
2021/08/28 11:34:54;;;;;;;8.10;2.65;;;21.70;71.50;;;;;;5047837;28;20109;-90
2021/08/28 11:37:27;;;;;;;7.55;2.20;;;21.70;71.10;;;;;;5047637;28;20057;-90
2021/08/28 11:39:59;;;;;;;8.38;2.20;;;21.70;70.10;;;;;;5016890;28;20046;-90
2021/08/28 11:42:33;;;;;;;5.65;2.17;;;21.80;70.20;;;;;;5024302;28;20072;-90
2021/08/28 11:45:01;;;;;;;6.18;2.22;;;21.70;70.10;;;;;;5029729;28;20037;-90
2021/08/28 11:47:29;;;;;;;7.82;2.40;;;21.70;69.60;;;;;;5048601;28;20443;-91
2021/08/28 11:49:58;;;;;;;6.28;2.28;;;21.70;69.70;;;;;;5035656;28;20060;-91
2021/08/28 11:52:27;;;;;;;6.72;2.10;;;21.70;69.40;;;;;;5051034;28;20058;-91
2021/08/28 11:54:57;;;;;;;6.00;2.42;;;21.70;69.10;;;;;;5015720;28;20570;-91
2021/08/28 11:57:24;;;;;;;7.30;2.10;;;21.80;69.30;;;;;;5015036;28;20100;-90
2021/08/28 11:59:52;;;;;;;8.25;2.53;;;21.80;69.00;;;;;;5015057;28;20057;-90
2021/08/28 12:02:20;;;;;;;7.43;2.20;;;21.90;68.80;;;;;;5023897;28;20057;-90
2021/08/28 12:04:47;;;;;;;7.20;2.67;;;21.90;68.40;;;;;;5064970;28;20408;-90
2021/08/28 12:07:15;;;;;;;10.15;3.00;;;21.90;68.40;;;;;;5066912;28;20438;-90
2021/08/28 12:09:42;;;;;;;7.90;2.58;;;21.90;68.70;;;;;;5034466;28;20123;-95
2021/08/28 12:12:10;;;;;;;9.07;2.92;;;21.90;68.90;;;;;;5031133;28;20069;-91
2021/08/28 12:14:36;;;;;;;7.45;2.35;;;21.90;68.90;;;;;;5048865;28;20128;-91
2021/08/28 12:17:04;;;;;;;8.02;2.50;;;21.90;68.60;;;;;;5047492;28;20130;-90
2021/08/28 12:19:37;;;;;;;8.02;2.30;;;21.90;68.60;;;;;;5064393;28;20478;-92
2021/08/28 12:22:10;;;;;;;8.38;2.05;;;21.90;68.30;;;;;;5021343;28;20050;-90
2021/08/28 12:24:40;;;;;;;6.85;2.35;;;21.90;68.00;;;;;;5014536;28;20144;-90
2021/08/28 12:27:10;;;;;;;7.22;2.78;;;21.80;68.10;;;;;;5052978;28;20049;-92
2021/08/28 12:29:39;;;;;;;9.48;2.90;;;21.70;68.30;;;;;;5066790;28;20050;-92
2021/08/28 12:32:12;;;;;;;9.40;2.80;;;21.70;68.70;;;;;;5035249;28;20049;-91
2021/08/28 12:34:44;;;;;;;9.32;2.92;;;21.70;68.90;;;;;;5035161;28;20053;-90
2021/08/28 12:37:14;;;;;;;7.70;3.22;;;21.70;69.80;;;;;;5067148;28;20045;-90
2021/08/28 12:39:43;;;;;;;11.50;3.90;;;21.60;69.90;;;;;;5066980;28;20056;-91
2021/08/28 12:42:21;;;;;;;11.68;3.30;;;21.50;69.00;;;;;;5057042;28;20111;-91
2021/08/28 12:44:53;;;;;;;11.90;3.25;;;21.50;68.90;;;;;;5012872;28;20046;-92
2021/08/28 12:47:23;;;;;;;7.93;2.75;;;21.40;69.00;;;;;;5026172;28;20149;-91
2021/08/28 12:49:52;;;;;;;7.38;2.40;;;21.40;69.00;;;;;;5045934;28;20115;-88